Time;durP1;ratioP1;P1;durP2;ratioP2;P2;SDS_P1;SDS_P2;PMS_P1;PMS_P2;Temp;Humidity;BMP_temperature;BMP_pressure;BME280_temperature;BME280_humidity;BME280_pressure;Samples;Min_cycle;Max_cycle;Signal;HPM_P1;HPM_P2
2023/08/14 00:02:58;;;;;;;11.10;3.80;;;;;;;21.32;68.84;100713.34;213541;1296;140056;-82
2023/08/14 00:07:59;;;;;;;9.50;4.00;;;;;;;21.31;69.64;100719.19;214226;1294;139234;-81
2023/08/14 00:13:00;;;;;;;10.20;3.70;;;;;;;21.30;69.65;100716.19;213733;1293;139375;-82
2023/08/14 00:18:00;;;;;;;15.40;4.00;;;;;;;21.27;68.93;100704.17;214150;1296;138599;-82
2023/08/14 00:23:01;;;;;;;9.20;4.00;;;;;;;21.26;68.90;100699.27;213803;1294;141414;-82
2023/08/14 00:28:01;;;;;;;9.50;4.20;;;;;;;21.25;68.89;100707.21;216025;1293;137835;-82
2023/08/14 00:33:02;;;;;;;9.50;3.60;;;;;;;21.23;69.00;100712.85;216427;1296;141056;-82
2023/08/14 00:38:02;;;;;;;8.70;3.70;;;;;;;21.21;70.19;100715.14;215254;1295;138027;-81
2023/08/14 00:43:03;;;;;;;11.70;4.20;;;;;;;21.20;69.79;100712.95;212658;1297;140616;-81
2023/08/14 00:48:04;;;;;;;10.50;4.30;;;;;;;21.19;69.86;100709.52;213020;1299;138337;-81
2023/08/14 00:53:05;;;;;;;9.50;4.20;;;;;;;21.17;70.10;100706.38;211231;1294;140409;-81
2023/08/14 00:58:05;;;;;;;9.50;4.00;;;;;;;21.15;70.18;100706.20;211209;1299;139245;-81
2023/08/14 01:03:06;;;;;;;12.20;5.00;;;;;;;21.12;70.65;100708.77;210980;1300;143692;-82
2023/08/14 01:08:06;;;;;;;12.00;5.00;;;;;;;21.07;71.32;100709.25;211751;1300;138212;-81
2023/08/14 01:13:30;;;;;;;14.90;4.30;;;;;;;21.00;71.33;100702.46;212088;1298;141199;-82
2023/08/14 01:18:35;;;;;;;11.40;4.70;;;;;;;20.95;71.86;100704.09;212796;1297;138406;-81
2023/08/14 01:23:46;;;;;;;13.40;4.60;;;;;;;20.90;71.98;100710.38;212786;1293;140661;-82
2023/08/14 01:28:47;;;;;;;11.20;4.60;;;;;;;20.88;72.37;100707.25;213238;1294;104556;-81
2023/08/14 01:33:48;;;;;;;10.40;4.60;;;;;;;20.85;72.68;100698.59;212941;1295;141842;-82
2023/08/14 01:39:10;;;;;;;8.70;5.00;;;;;;;20.82;72.67;100701.48;214124;1298;138318;-82
2023/08/14 01:44:14;;;;;;;15.90;4.60;;;;;;;20.78;72.97;100703.73;213971;1298;222633;-83
2023/08/14 01:49:17;;;;;;;11.40;4.50;;;;;;;20.74;73.21;100701.52;213543;1294;140995;-82
2023/08/14 01:54:18;;;;;;;12.60;4.50;;;;;;;20.70;73.55;100696.91;214307;1295;139424;-82
2023/08/14 01:59:28;;;;;;;12.10;4.30;;;;;;;20.68;73.76;100698.73;213576;1296;141198;-81
2023/08/14 02:04:28;;;;;;;8.90;3.70;;;;;;;20.66;74.20;100713.09;214028;1295;138725;-82
2023/08/14 02:09:29;;;;;;;9.30;4.00;;;;;;;20.67;74.58;100736.33;213530;1298;140731;-81
2023/08/14 02:14:29;;;;;;;17.80;4.80;;;;;;;20.67;75.48;100749.17;215062;1293;138834;-82
2023/08/14 02:19:30;;;;;;;8.70;3.90;;;;;;;20.67;75.29;100756.69;216512;1293;143192;-82
2023/08/14 02:24:30;;;;;;;10.40;3.70;;;;;;;20.69;73.44;100717.81;216216;1297;138856;-81
2023/08/14 02:29:31;;;;;;;14.70;3.90;;;;;;;20.78;72.49;100711.00;212388;1300;139821;-82
2023/08/14 02:34:42;;;;;;;10.60;3.90;;;;;;;20.83;72.03;100727.52;212764;1298;139034;-81
2023/08/14 02:39:43;;;;;;;8.30;3.20;;;;;;;20.84;72.39;100731.16;212244;1294;140424;-83
2023/08/14 02:44:44;;;;;;;9.90;3.50;;;;;;;20.83;72.74;100731.68;212948;1295;139781;-81
2023/08/14 02:49:44;;;;;;;8.30;4.00;;;;;;;20.80;74.72;100733.59;212293;1294;140778;-81
2023/08/14 02:54:45;;;;;;;7.60;3.70;;;;;;;20.73;75.89;100731.20;213164;1294;138873;-81
2023/08/14 02:59:45;;;;;;;7.90;3.80;;;;;;;20.65;76.23;100728.16;212442;1299;141100;-81
2023/08/14 03:04:45;;;;;;;8.70;3.80;;;;;;;20.54;76.31;100732.40;212962;1296;97985;-82
2023/08/14 03:09:46;;;;;;;8.60;3.80;;;;;;;20.42;77.92;100731.84;212393;1294;140475;-81
2023/08/14 03:14:46;;;;;;;11.90;4.40;;;;;;;20.27;79.49;100721.40;213014;1294;139754;-81
2023/08/14 03:19:47;;;;;;;10.30;4.00;;;;;;;20.12;80.39;100717.85;212804;1293;142860;-81
2023/08/14 03:24:47;;;;;;;9.60;3.80;;;;;;;19.97;81.11;100720.55;214077;1293;139179;-81
2023/08/14 03:29:47;;;;;;;12.40;3.90;;;;;;;19.86;81.86;100722.73;213948;1294;140725;-81
2023/08/14 03:34:48;;;;;;;8.40;3.30;;;;;;;19.72;82.63;100721.35;214929;1293;101742;-81
2023/08/14 03:39:48;;;;;;;9.90;3.60;;;;;;;19.58;82.85;100714.71;214253;1293;141114;-81
2023/08/14 03:44:48;;;;;;;7.00;3.60;;;;;;;19.48;83.49;100713.88;214921;1297;138898;-80
2023/08/14 03:49:49;;;;;;;9.10;4.10;;;;;;;19.41;84.32;100704.39;214285;1297;140685;-82
2023/08/14 03:54:49;;;;;;;7.70;3.70;;;;;;;19.34;84.89;100711.70;214688;1296;138856;-81
2023/08/14 03:59:50;;;;;;;11.10;3.90;;;;;;;19.34;84.99;100717.04;213832;1295;139607;-82
2023/08/14 04:04:50;;;;;;;10.70;4.20;;;;;;;19.36;85.16;100718.04;216471;1295;96624;-82
2023/08/14 04:09:51;;;;;;;10.00;3.80;;;;;;;19.39;85.15;100712.72;216357;1294;141108;-82
2023/08/14 04:14:51;;;;;;;10.80;4.00;;;;;;;19.45;85.26;100710.45;214781;1296;139307;-81
2023/08/14 04:19:52;;;;;;;10.60;3.70;;;;;;;19.53;84.60;100708.45;212167;1296;140831;-81
2023/08/14 04:24:52;;;;;;;8.20;4.00;;;;;;;19.64;84.36;100711.32;211550;1296;139061;-81
2023/08/14 04:29:53;;;;;;;8.50;3.70;;;;;;;19.72;84.00;100713.28;212404;1298;140940;-81
2023/08/14 04:34:53;;;;;;;7.80;3.30;;;;;;;19.79;84.03;100708.83;212991;1298;98662;-82
2023/08/14 04:39:54;;;;;;;10.80;3.80;;;;;;;19.83;84.29;100713.36;212512;1296;140653;-82
2023/08/14 04:44:54;;;;;;;8.70;3.30;;;;;;;19.86;84.27;100710.50;212912;1294;139016;-82
2023/08/14 04:49:55;;;;;;;8.80;3.40;;;;;;;19.93;84.34;100718.89;212356;1298;139658;-82
2023/08/14 04:54:55;;;;;;;8.70;3.40;;;;;;;20.02;83.96;100713.65;212869;1297;139237;-82
2023/08/14 04:59:56;;;;;;;9.80;3.70;;;;;;;20.12;83.74;100716.50;212382;1295;143076;-81
2023/08/14 05:04:56;;;;;;;10.10;3.80;;;;;;;20.21;83.30;100710.13;213302;1297;97970;-83
2023/08/14 05:09:57;;;;;;;7.40;3.40;;;;;;;20.32;82.90;100712.41;213084;1294;140485;-82
2023/08/14 05:14:57;;;;;;;8.70;3.20;;;;;;;20.46;82.72;100706.16;213935;1296;138721;-82
2023/08/14 05:19:58;;;;;;;7.50;3.30;;;;;;;20.59;82.50;100700.00;213905;1294;142891;-83
2023/08/14 05:24:59;;;;;;;10.70;3.70;;;;;;;20.73;82.52;100698.19;214117;1295;138807;-82
2023/08/14 05:29:59;;;;;;;12.10;4.00;;;;;;;20.85;82.37;100691.88;213679;1298;142052;-82
2023/08/14 05:35:00;;;;;;;9.30;3.30;;;;;;;20.96;82.27;100695.92;214020;1296;97982;-83
2023/08/14 05:40:00;;;;;;;8.20;3.50;;;;;;;21.05;82.50;100698.58;213488;1294;140515;-82
2023/08/14 05:45:01;;;;;;;8.10;3.80;;;;;;;21.21;83.08;100694.77;214071;1296;138917;-82
2023/08/14 05:50:01;;;;;;;9.00;3.80;;;;;;;21.41;83.57;100688.09;214494;1293;141085;-82
2023/08/14 05:55:02;;;;;;;8.00;3.40;;;;;;;21.70;83.20;100675.27;216868;1295;138837;-83
2023/08/14 06:00:03;;;;;;;11.10;3.90;;;;;;;22.06;82.36;100688.38;216281;1294;142306;-83
2023/08/14 06:05:04;;;;;;;6.90;3.00;;;;;;;22.47;82.06;100692.41;213413;1294;98000;-82
2023/08/14 06:10:06;;;;;;;10.40;3.60;;;;;;;22.94;80.51;100690.88;212561;1294;141020;-82
2023/08/14 06:15:07;;;;;;;11.60;3.50;;;;;;;23.34;78.69;100693.20;213100;1293;139017;-82
2023/08/14 06:20:09;;;;;;;9.90;3.40;;;;;;;23.66;76.60;100694.83;212598;1294;142010;-86
2023/08/14 06:25:11;;;;;;;7.00;3.30;;;;;;;23.96;75.89;100693.34;212928;1297;139392;-84
2023/08/14 06:30:12;;;;;;;7.20;3.50;;;;;;;24.12;74.31;100698.91;212527;1297;141971;-85
2023/08/14 06:35:13;;;;;;;8.90;3.50;;;;;;;24.21;74.68;100699.66;213119;1298;98008;-85
2023/08/14 06:40:13;;;;;;;8.30;3.20;;;;;;;24.37;74.39;100696.48;212327;1293;140731;-85
2023/08/14 06:45:15;;;;;;;7.30;3.50;;;;;;;24.45;73.75;100701.55;212888;1297;139200;-84
2023/08/14 06:50:16;;;;;;;6.90;3.50;;;;;;;24.45;72.34;100701.05;212571;1298;141473;-84
2023/08/14 06:55:17;;;;;;;8.90;4.10;;;;;;;24.47;73.41;100712.88;213507;1298;139018;-84
2023/08/14 07:00:17;;;;;;;7.20;4.40;;;;;;;24.60;72.88;100712.74;213313;1296;141824;-84
2023/08/14 07:05:17;;;;;;;8.80;4.30;;;;;;;24.61;72.62;100708.12;214485;1296;97906;-85
2023/08/14 07:10:18;;;;;;;10.30;4.90;;;;;;;24.62;72.47;100709.97;213671;1296;140336;-84
2023/08/14 07:15:19;;;;;;;7.80;4.20;;;;;;;24.60;72.29;100711.09;214146;1299;138937;-86
2023/08/14 07:20:19;;;;;;;10.10;3.90;;;;;;;24.65;72.72;100709.65;213660;1294;140814;-85
2023/08/14 07:25:20;;;;;;;11.00;5.20;;;;;;;24.75;72.50;100716.55;214269;1295;139055;-85
2023/08/14 07:30:20;;;;;;;9.60;4.10;;;;;;;24.82;72.20;100723.11;213673;1294;142389;-85
2023/08/14 07:35:21;;;;;;;10.30;5.30;;;;;;;24.84;72.81;100725.68;214343;1294;98413;-87
2023/08/14 07:40:21;;;;;;;8.40;4.20;;;;;;;24.90;72.36;100725.56;215599;1296;140796;-87
2023/08/14 07:45:22;;;;;;;8.70;4.50;;;;;;;24.99;72.78;100725.48;217016;1293;139152;-86
2023/08/14 07:50:22;;;;;;;11.70;5.30;;;;;;;25.14;72.72;100717.20;214429;1294;142475;-85
2023/08/14 07:55:23;;;;;;;10.90;4.60;;;;;;;25.24;72.26;100717.30;213283;1300;139804;-85
2023/08/14 08:00:24;;;;;;;7.10;4.10;;;;;;;25.28;72.11;100721.89;212850;1297;142074;-85
2023/08/14 08:05:24;;;;;;;10.40;4.70;;;;;;;25.39;72.81;100723.92;213338;1297;97948;-86
2023/08/14 08:10:25;;;;;;;14.20;5.00;;;;;;;25.60;72.64;100726.81;213002;1294;141385;-87
2023/08/14 08:15:25;;;;;;;9.80;5.00;;;;;;;25.79;71.69;100722.60;214037;1294;138762;-87
2023/08/14 08:20:26;;;;;;;9.60;5.40;;;;;;;26.00;71.81;100723.00;213062;1294;140662;-86
2023/08/14 08:25:26;;;;;;;9.40;5.00;;;;;;;26.34;71.47;100728.27;214122;1297;139201;-86
2023/08/14 08:30:27;;;;;;;13.70;6.10;;;;;;;26.80;70.53;100733.40;214044;1297;140905;-85
2023/08/14 08:35:27;;;;;;;8.40;5.20;;;;;;;27.31;69.50;100728.52;213430;1296;98000;-87
2023/08/14 08:40:29;;;;;;;9.30;5.00;;;;;;;28.00;68.31;100728.85;212839;1294;139966;-86
2023/08/14 08:45:36;;;;;;;10.50;5.70;;;;;;;28.69;67.89;100721.25;213596;1298;137863;-88
2023/08/14 08:50:37;;;;;;;10.00;5.30;;;;;;;29.48;65.15;100721.80;213774;1296;140111;-91
2023/08/14 08:55:37;;;;;;;8.90;4.60;;;;;;;30.14;63.56;100726.39;214235;1294;138338;-90
2023/08/14 09:00:37;;;;;;;8.50;5.10;;;;;;;30.80;61.12;100727.53;213894;1297;140093;-88
2023/08/14 09:05:41;;;;;;;12.50;5.60;;;;;;;31.19;59.72;100727.38;214542;1296;97706;-87
2023/08/14 09:10:41;;;;;;;11.60;5.50;;;;;;;31.58;58.33;100723.16;213670;1294;140895;-88
2023/08/14 09:15:42;;;;;;;11.50;6.00;;;;;;;32.15;58.29;100718.77;214236;1293;139746;-90
2023/08/14 09:20:43;;;;;;;9.10;4.90;;;;;;;32.76;56.24;100719.39;213848;1294;140002;-86
2023/08/14 09:25:46;;;;;;;11.00;5.40;;;;;;;33.27;54.98;100709.23;214917;1297;138883;-89
2023/08/14 09:30:47;;;;;;;9.90;5.10;;;;;;;33.78;54.72;100704.05;216364;1296;140980;-88
2023/08/14 09:35:53;;;;;;;12.40;5.40;;;;;;;34.57;53.28;100705.09;216592;1295;138786;-86
2023/08/14 09:40:57;;;;;;;9.30;5.50;;;;;;;35.12;50.53;100707.98;212912;1294;140810;-88
2023/08/14 09:46:00;;;;;;;7.40;4.60;;;;;;;35.23;48.96;100716.70;213158;1296;138019;-87
2023/08/14 09:51:01;;;;;;;9.80;5.40;;;;;;;35.52;47.95;100712.96;212842;1295;139970;-87
2023/08/14 09:56:02;;;;;;;11.10;5.30;;;;;;;35.51;46.60;100716.42;212973;1297;248642;-87
2023/08/14 10:01:03;;;;;;;9.30;5.10;;;;;;;35.90;47.84;100714.48;212484;1295;141107;-87
2023/08/14 10:06:05;;;;;;;8.40;4.80;;;;;;;36.42;46.83;100711.78;212930;1297;138385;-88
2023/08/14 10:11:06;;;;;;;7.90;4.80;;;;;;;36.66;44.38;100715.61;212589;1294;141562;-86
2023/08/14 10:16:11;;;;;;;11.20;4.60;;;;;;;36.83;42.77;100714.36;213141;1296;137816;-86
2023/08/14 10:21:14;;;;;;;7.80;4.10;;;;;;;37.07;43.13;100706.66;212605;1298;140721;-86
2023/08/14 10:26:16;;;;;;;9.10;5.20;;;;;;;37.49;41.91;100709.50;213581;1298;138171;-86
2023/08/14 10:31:18;;;;;;;7.30;4.90;;;;;;;37.62;40.90;100708.63;212833;1297;139938;-86
2023/08/14 10:36:19;;;;;;;10.30;4.30;;;;;;;38.00;40.70;100704.14;214159;1297;138216;-89
2023/08/14 10:41:20;;;;;;;9.00;4.70;;;;;;;38.03;37.14;100701.83;213893;1293;139860;-85
2023/08/14 10:46:21;;;;;;;9.90;4.70;;;;;;;37.82;38.20;100697.11;214091;1296;137912;-89
2023/08/14 10:51:21;;;;;;;9.80;5.30;;;;;;;37.61;37.25;100694.14;213686;1294;141044;-85
2023/08/14 10:56:40;;;;;;;8.70;4.30;;;;;;;37.57;37.14;100689.75;214272;1294;138042;-87
2023/08/14 11:01:40;;;;;;;9.10;4.60;;;;;;;37.59;37.74;100689.48;213879;1294;141150;-85
2023/08/14 11:06:59;;;;;;;8.90;4.30;;;;;;;37.74;36.45;100689.12;214398;1298;138741;-85
2023/08/14 11:12:05;;;;;;;8.20;4.00;;;;;;;37.77;35.81;100686.58;214037;1294;140816;-90
2023/08/14 11:17:08;;;;;;;9.80;4.20;;;;;;;37.67;35.82;100686.05;216794;1294;102862;-89
2023/08/14 11:22:08;;;;;;;9.50;3.90;;;;;;;37.71;34.58;100691.39;216540;1293;139466;-86
2023/08/14 11:27:08;;;;;;;8.00;4.30;;;;;;;37.60;35.53;100695.20;214440;1294;138078;-87
2023/08/14 11:32:09;;;;;;;8.40;3.50;;;;;;;37.76;35.30;100688.60;212722;1298;141084;-85
2023/08/14 11:37:09;;;;;;;8.10;4.20;;;;;;;37.97;35.93;100680.71;213097;1297;138024;-87
2023/08/14 11:42:10;;;;;;;11.70;4.10;;;;;;;37.83;34.01;100685.70;213137;1293;140113;-87
2023/08/14 11:47:11;;;;;;;5.50;3.50;;;;;;;37.43;33.72;100690.10;213675;1291;102781;-87
2023/08/14 11:52:12;;;;;;;6.80;3.70;;;;;;;37.25;34.33;100685.55;213276;1291;142687;-86
2023/08/14 11:57:13;;;;;;;5.90;3.20;;;;;;;37.52;36.23;100683.16;213793;1291;137915;-86
2023/08/14 12:02:14;;;;;;;8.30;3.80;;;;;;;37.68;34.38;100677.67;213148;1293;141095;-89
2023/08/14 12:07:17;;;;;;;6.40;3.70;;;;;;;37.51;32.64;100689.87;213573;1293;138238;-88
2023/08/14 12:12:18;;;;;;;4.50;2.90;;;;;;;36.98;33.27;100686.95;213008;1296;140885;-85
2023/08/14 12:17:19;;;;;;;4.70;3.00;;;;;;;37.02;33.85;100680.82;213833;1295;98946;-90
2023/08/14 12:22:24;;;;;;;8.20;3.40;;;;;;;36.80;33.21;100675.87;213794;1291;141146;-87
2023/08/14 12:27:26;;;;;;;7.60;3.40;;;;;;;36.74;34.58;100667.67;214790;1291;138102;-87
2023/08/14 12:32:27;;;;;;;7.00;3.80;;;;;;;36.66;34.64;100672.48;214488;1291;140328;-87
2023/08/14 12:37:27;;;;;;;7.10;3.50;;;;;;;36.59;34.37;100669.27;214750;1290;138140;-87
2023/08/14 12:42:27;;;;;;;9.10;3.80;;;;;;;36.58;34.24;100667.20;214351;1290;140768;-87
2023/08/14 12:47:28;;;;;;;7.00;3.70;;;;;;;36.59;35.04;100669.69;215079;1290;98489;-89
2023/08/14 12:52:28;;;;;;;10.80;3.70;;;;;;;36.42;33.37;100669.23;214131;1289;139142;-87
2023/08/14 12:57:29;;;;;;;8.00;3.60;;;;;;;36.08;36.07;100664.31;214951;1291;138214;-87
2023/08/14 13:02:30;;;;;;;7.50;3.30;;;;;;;36.16;35.78;100664.09;215343;1295;139962;-86
2023/08/14 13:07:32;;;;;;;11.60;3.70;;;;;;;36.12;34.96;100663.84;217538;1295;138538;-87
2023/08/14 13:12:33;;;;;;;7.10;3.80;;;;;;;35.92;34.39;100664.64;216166;1291;140758;-86
2023/08/14 13:17:33;;;;;;;7.00;3.80;;;;;;;35.76;35.86;100658.21;213832;1293;98524;-87
2023/08/14 13:22:33;;;;;;;6.10;3.30;;;;;;;35.74;37.73;100647.86;213194;1295;140528;-86
2023/08/14 13:27:34;;;;;;;9.80;4.50;;;;;;;35.95;38.05;100646.89;213667;1295;138219;-86
2023/08/14 13:32:34;;;;;;;6.30;3.80;;;;;;;35.73;37.48;100635.85;213037;1295;140034;-86
2023/08/14 13:37:35;;;;;;;6.20;3.20;;;;;;;35.73;37.40;100627.57;213601;1295;138497;-85
2023/08/14 13:42:36;;;;;;;8.10;4.10;;;;;;;35.80;38.66;100631.16;213216;1294;140092;-87
2023/08/14 13:47:36;;;;;;;6.60;3.50;;;;;;;35.72;36.21;100623.58;213824;1291;98765;-87
2023/08/14 13:52:36;;;;;;;7.10;3.70;;;;;;;35.48;35.57;100615.17;213283;1294;139835;-88
2023/08/14 13:57:37;;;;;;;8.90;3.90;;;;;;;35.24;35.83;100605.96;213796;1291;137961;-87
2023/08/14 14:02:37;;;;;;;7.10;3.40;;;;;;;34.97;36.05;100606.17;213271;1294;140950;-86
2023/08/14 14:07:38;;;;;;;8.10;3.70;;;;;;;34.83;37.03;100598.52;213921;1291;138783;-87
2023/08/14 14:12:38;;;;;;;6.00;3.40;;;;;;;34.68;37.41;100592.34;214081;1293;140131;-86
2023/08/14 14:17:39;;;;;;;8.00;3.50;;;;;;;34.64;38.77;100588.91;214586;1291;97997;-87
2023/08/14 14:22:39;;;;;;;7.50;3.50;;;;;;;34.66;38.99;100589.41;214254;1293;138796;-91
2023/08/14 14:27:39;;;;;;;8.00;3.70;;;;;;;34.47;36.57;100597.56;214802;1293;138132;-86
2023/08/14 14:32:40;;;;;;;7.60;3.10;;;;;;;34.39;42.07;100596.55;214349;1294;139683;-86
2023/08/14 14:37:40;;;;;;;7.00;3.60;;;;;;;34.55;40.54;100598.29;214736;1294;138317;-86
2023/08/14 14:42:41;;;;;;;7.30;3.20;;;;;;;34.52;39.02;100603.33;214344;1294;140787;-86
2023/08/14 14:47:41;;;;;;;8.10;3.00;;;;;;;34.33;38.16;100601.45;214960;1291;97877;-89
2023/08/14 14:52:42;;;;;;;5.70;3.10;;;;;;;34.00;37.13;100603.13;217163;1292;140755;-86
2023/08/14 14:57:42;;;;;;;7.50;2.90;;;;;;;33.72;37.71;100600.17;217594;1290;138120;-86
2023/08/14 15:02:43;;;;;;;5.80;3.20;;;;;;;33.51;38.10;100599.88;214225;1293;140775;-87
2023/08/14 15:07:46;;;;;;;5.20;3.50;;;;;;;33.22;37.55;100582.70;213923;1295;138095;-86
2023/08/14 15:12:46;;;;;;;6.40;3.40;;;;;;;33.03;38.29;100576.90;213276;1289;140344;-85
2023/08/14 15:17:47;;;;;;;5.50;3.30;;;;;;;32.83;39.78;100567.64;213627;1295;139128;-86
2023/08/14 15:22:47;;;;;;;6.50;3.00;;;;;;;32.66;42.06;100562.78;213293;1298;139877;-85
2023/08/14 15:27:48;;;;;;;6.30;3.30;;;;;;;32.55;43.05;100568.94;213612;1295;139081;-86
2023/08/14 15:32:48;;;;;;;6.50;2.90;;;;;;;32.52;44.03;100572.43;213240;1290;139290;-85
2023/08/14 15:37:49;;;;;;;6.30;3.10;;;;;;;32.37;45.22;100577.93;213746;1291;138255;-87
2023/08/14 15:42:49;;;;;;;6.40;3.20;;;;;;;32.31;43.88;100587.74;213131;1295;141080;-87
2023/08/14 15:47:50;;;;;;;5.90;3.60;;;;;;;32.22;45.46;100592.40;213657;1295;138862;-87
2023/08/14 15:52:51;;;;;;;7.80;3.70;;;;;;;32.19;45.73;100600.08;213433;1291;139793;-86
2023/08/14 15:57:51;;;;;;;5.10;3.20;;;;;;;32.07;46.17;100614.08;214295;1291;139059;-87
2023/08/14 16:02:52;;;;;;;11.20;3.90;;;;;;;31.99;46.64;100618.50;214289;1291;140475;-83
2023/08/14 16:07:52;;;;;;;6.60;3.50;;;;;;;31.88;47.22;100619.12;214937;1291;138390;-83
2023/08/14 16:12:52;;;;;;;7.60;3.40;;;;;;;31.77;47.08;100610.04;214553;1290;141452;-84
2023/08/14 16:17:53;;;;;;;6.40;3.70;;;;;;;31.63;45.95;100608.80;214848;1290;139321;-82
2023/08/14 16:22:53;;;;;;;5.00;3.20;;;;;;;31.58;48.04;100602.30;214435;1292;139756;-82
2023/08/14 16:27:54;;;;;;;9.20;3.30;;;;;;;31.56;49.31;100603.13;214802;1291;137852;-82
2023/08/14 16:32:54;;;;;;;12.00;5.00;;;;;;;31.53;50.30;100605.70;214401;1290;141341;-82
2023/08/14 16:37:54;;;;;;;9.80;4.90;;;;;;;31.43;49.78;100611.70;216188;1291;138249;-82
2023/08/14 16:42:55;;;;;;;11.10;5.40;;;;;;;31.29;51.14;100618.52;217121;1291;141537;-82
2023/08/14 16:47:55;;;;;;;11.10;4.70;;;;;;;31.19;51.91;100617.81;216404;1292;138347;-83
2023/08/14 16:52:56;;;;;;;9.70;4.30;;;;;;;31.12;51.19;100618.39;213465;1293;143205;-83
2023/08/14 16:57:56;;;;;;;7.90;4.20;;;;;;;31.04;51.65;100615.65;213667;1295;138249;-83
2023/08/14 17:02:57;;;;;;;8.80;3.90;;;;;;;30.96;52.32;100604.19;213089;1291;140809;-82
2023/08/14 17:07:57;;;;;;;8.60;4.60;;;;;;;30.93;52.70;100596.33;213571;1291;139757;-82
2023/08/14 17:12:58;;;;;;;7.80;4.40;;;;;;;30.77;52.82;100588.06;213173;1291;141736;-82
2023/08/14 17:17:58;;;;;;;7.70;3.80;;;;;;;30.66;54.46;100591.64;213639;1293;138010;-82
2023/08/14 17:22:59;;;;;;;8.90;5.10;;;;;;;30.58;54.73;100592.56;213476;1290;140029;-82
2023/08/14 17:27:59;;;;;;;11.50;6.40;;;;;;;30.48;54.41;100590.96;213767;1291;137860;-82
2023/08/14 17:32:59;;;;;;;10.50;5.60;;;;;;;30.28;54.87;100578.47;213255;1291;141721;-82
2023/08/14 17:38:00;;;;;;;10.90;5.20;;;;;;;30.02;55.96;100577.49;213928;1292;138180;-82
2023/08/14 17:43:00;;;;;;;7.10;4.40;;;;;;;29.77;56.76;100570.55;213569;1293;141095;-82
2023/08/14 17:48:01;;;;;;;6.70;4.00;;;;;;;29.58;57.07;100564.21;214635;1291;138013;-82
2023/08/14 17:53:02;;;;;;;6.80;4.30;;;;;;;29.42;56.59;100559.06;214526;1290;141940;-82
2023/08/14 17:58:02;;;;;;;9.70;5.30;;;;;;;29.21;57.74;100555.27;214709;1290;137858;-83
2023/08/14 18:03:03;;;;;;;7.20;4.30;;;;;;;28.97;58.49;100554.55;214240;1291;142458;-82
2023/08/14 18:08:04;;;;;;;10.80;4.40;;;;;;;28.84;58.48;100565.16;214862;1291;138032;-82
2023/08/14 18:13:04;;;;;;;9.60;4.80;;;;;;;28.69;58.52;100565.77;214417;1290;140739;-82
2023/08/14 18:18:05;;;;;;;9.70;4.40;;;;;;;28.52;59.31;100560.94;214991;1291;137940;-82
2023/08/14 18:23:06;;;;;;;6.80;4.20;;;;;;;28.37;60.11;100560.94;214566;1291;139814;-81
2023/08/14 18:28:06;;;;;;;8.90;5.00;;;;;;;28.22;60.80;100571.59;217109;1291;138007;-82
2023/08/14 18:33:07;;;;;;;9.20;5.20;;;;;;;28.09;60.75;100582.35;217220;1290;140103;-82
2023/08/14 18:38:08;;;;;;;8.70;4.70;;;;;;;27.94;61.37;100595.68;215260;1291;138781;-82
2023/08/14 18:43:08;;;;;;;12.00;5.70;;;;;;;27.79;61.84;100605.47;213282;1290;140047;-82
2023/08/14 18:48:09;;;;;;;7.10;4.50;;;;;;;27.61;62.92;100613.84;213618;1291;138707;-82
2023/08/14 18:53:09;;;;;;;8.00;5.00;;;;;;;27.52;62.97;100623.70;213210;1291;140198;-82
2023/08/14 18:58:09;;;;;;;9.90;5.40;;;;;;;27.40;63.28;100631.36;213707;1290;139085;-83
2023/08/14 19:03:12;;;;;;;9.20;4.60;;;;;;;27.28;64.19;100638.89;213095;1291;140109;-82
2023/08/14 19:08:12;;;;;;;11.70;5.10;;;;;;;27.15;64.53;100651.66;213431;1295;138606;-82
2023/08/14 19:13:13;;;;;;;8.80;5.30;;;;;;;27.05;65.46;100650.10;213182;1290;139446;-82
2023/08/14 19:18:14;;;;;;;15.20;7.10;;;;;;;26.93;66.16;100654.44;213476;1293;138591;-82
2023/08/14 19:23:15;;;;;;;12.20;8.10;;;;;;;26.85;67.29;100658.89;213424;1291;141495;-83
2023/08/14 19:28:15;;;;;;;11.00;6.30;;;;;;;26.82;68.59;100665.85;213648;1293;138152;-82
2023/08/14 19:33:16;;;;;;;13.70;7.10;;;;;;;26.72;68.96;100661.14;213577;1290;140406;-83
2023/08/14 19:38:16;;;;;;;12.40;6.90;;;;;;;26.60;69.97;100656.60;214718;1290;138163;-82
2023/08/14 19:43:17;;;;;;;9.90;5.70;;;;;;;26.48;71.13;100658.69;214069;1292;140576;-82
2023/08/14 19:48:17;;;;;;;12.90;7.00;;;;;;;26.38;71.62;100667.70;214607;1291;138893;-82
2023/08/14 19:53:18;;;;;;;14.40;7.70;;;;;;;26.20;72.80;100663.80;214169;1291;140714;-82
2023/08/14 19:58:18;;;;;;;12.30;6.90;;;;;;;25.98;73.96;100659.58;214658;1291;138807;-83
2023/08/14 20:03:18;;;;;;;13.50;8.40;;;;;;;25.89;74.30;100660.41;214391;1290;140936;-83
2023/08/14 20:08:19;;;;;;;15.90;7.70;;;;;;;25.80;75.25;100666.23;214870;1291;139425;-83
2023/08/14 20:13:20;;;;;;;13.00;7.60;;;;;;;25.64;76.18;100666.76;215133;1291;141123;-82
2023/08/14 20:18:20;;;;;;;14.60;7.30;;;;;;;25.47;77.31;100669.36;217506;1291;138900;-82
2023/08/14 20:23:21;;;;;;;11.90;8.10;;;;;;;25.34;78.06;100664.72;216983;1290;141294;-82
2023/08/14 20:28:22;;;;;;;14.10;7.70;;;;;;;25.18;79.39;100665.48;213961;1290;139267;-82
2023/08/14 20:33:23;;;;;;;21.20;8.60;;;;;;;25.02;80.75;100652.08;213150;1291;141427;-82
2023/08/14 20:38:24;;;;;;;11.50;7.80;;;;;;;24.86;81.68;100642.40;213582;1293;139343;-82
2023/08/14 20:43:31;;;;;;;12.20;8.40;;;;;;;24.74;81.77;100622.25;213173;1291;141019;-83
2023/08/14 20:48:32;;;;;;;11.70;7.50;;;;;;;24.64;82.32;100613.67;213640;1291;138885;-82
2023/08/14 20:53:32;;;;;;;10.00;7.10;;;;;;;24.56;82.51;100606.80;213332;1291;142927;-82
2023/08/14 20:58:33;;;;;;;14.40;8.90;;;;;;;24.48;82.80;100602.29;213630;1291;139333;-83
2023/08/14 21:03:33;;;;;;;13.70;9.30;;;;;;;24.43;82.82;100599.46;213027;1293;140517;-81
2023/08/14 21:08:36;;;;;;;13.80;8.50;;;;;;;24.36;83.41;100588.77;213505;1291;139512;-82
2023/08/14 21:13:36;;;;;;;12.80;8.20;;;;;;;24.28;83.98;100580.50;213195;1293;141349;-82
2023/08/14 21:18:37;;;;;;;10.60;7.80;;;;;;;24.19;83.73;100576.77;213768;1291;138958;-82
2023/08/14 21:23:37;;;;;;;11.80;7.80;;;;;;;24.13;83.62;100568.44;214229;1291;139977;-82
2023/08/14 21:28:38;;;;;;;15.40;8.00;;;;;;;24.07;84.71;100558.90;214714;1291;138670;-83
2023/08/14 21:33:38;;;;;;;13.10;8.40;;;;;;;24.03;84.55;100551.52;214023;1290;141683;-82
2023/08/14 21:38:39;;;;;;;12.30;9.00;;;;;;;24.00;85.31;100547.89;214663;1291;140057;-83
2023/08/14 21:43:41;;;;;;;12.20;8.50;;;;;;;23.97;86.90;100536.91;214393;1290;143377;-82
2023/08/14 21:48:42;;;;;;;12.80;7.90;;;;;;;23.95;87.18;100541.95;214949;1291;138920;-82
2023/08/14 21:53:42;;;;;;;12.30;9.10;;;;;;;23.93;86.52;100551.99;214354;1290;303406;-82
2023/08/14 21:58:42;;;;;;;14.80;9.10;;;;;;;23.93;87.81;100553.92;214855;1293;139487;-82
2023/08/14 22:03:43;;;;;;;14.90;9.20;;;;;;;23.92;87.15;100565.76;216535;1291;209009;-82
2023/08/14 22:08:43;;;;;;;12.40;8.30;;;;;;;23.93;87.56;100583.50;217531;1291;140006;-82
2023/08/14 22:13:43;;;;;;;13.20;9.70;;;;;;;23.92;87.89;100577.05;214716;1291;140759;-82
2023/08/14 22:18:44;;;;;;;12.50;8.50;;;;;;;23.91;87.71;100562.14;213708;1293;139052;-82
2023/08/14 22:23:44;;;;;;;16.40;9.50;;;;;;;23.89;87.19;100571.70;212865;1292;142212;-82
2023/08/14 22:28:44;;;;;;;12.60;8.70;;;;;;;23.86;87.78;100580.31;213339;1293;98121;-82
2023/08/14 22:33:45;;;;;;;14.30;9.20;;;;;;;23.81;87.29;100584.54;212906;1292;140219;-82
2023/08/14 22:38:45;;;;;;;12.80;8.90;;;;;;;23.76;88.60;100575.64;213472;1292;138913;-82
2023/08/14 22:43:46;;;;;;;16.30;8.90;;;;;;;23.72;88.82;100568.11;212948;1295;141710;-83